Time;durP1;ratioP1;P1;durP2;ratioP2;P2;SDS_P1;SDS_P2;PMS_P1;PMS_P2;Temp;Humidity;BMP_temperature;BMP_pressure;BME280_temperature;BME280_humidity;BME280_pressure;Samples;Min_cycle;Max_cycle;Signal;HPM_P1;HPM_P2
2021/09/23 00:00:57;;;;;;;12.17;10.00;;;8.90;99.90;;;;;;5131204;27;20455;-67
2021/09/23 00:03:55;;;;;;;11.57;10.10;;;8.90;99.90;;;;;;5129905;27;20455;-67
2021/09/23 00:06:22;;;;;;;12.47;10.40;;;8.90;99.90;;;;;;5130973;27;20504;-67
2021/09/23 00:08:49;;;;;;;13.40;10.53;;;8.90;99.90;;;;;;5130932;27;20989;-67
2021/09/23 00:11:15;;;;;;;12.37;11.07;;;8.80;99.90;;;;;;5131402;27;20444;-67
2021/09/23 00:13:44;;;;;;;13.63;11.67;;;8.90;99.90;;;;;;5129414;27;20448;-67
2021/09/23 00:16:10;;;;;;;14.87;11.37;;;8.90;99.90;;;;;;5130673;27;20464;-67
2021/09/23 00:18:37;;;;;;;11.80;9.40;;;8.80;99.90;;;;;;5131088;27;20895;-67
2021/09/23 00:21:06;;;;;;;10.87;9.83;;;8.90;99.90;;;;;;5130856;27;20455;-67
2021/09/23 00:23:34;;;;;;;12.60;10.60;;;8.80;99.90;;;;;;5128047;27;20541;-67
2021/09/23 00:26:01;;;;;;;10.20;9.00;;;8.80;99.90;;;;;;5130614;27;20456;-67
2021/09/23 00:28:28;;;;;;;12.73;9.67;;;8.80;99.90;;;;;;5130709;27;20479;-67
2021/09/23 00:30:56;;;;;;;12.63;9.60;;;8.80;99.90;;;;;;5130495;27;20828;-67
2021/09/23 00:33:23;;;;;;;14.80;11.57;;;8.80;99.90;;;;;;5129568;27;20823;-67
2021/09/23 00:35:50;;;;;;;11.53;10.23;;;8.70;99.90;;;;;;5130582;27;20471;-67
2021/09/23 00:38:17;;;;;;;12.37;10.13;;;8.60;99.90;;;;;;5130335;27;20892;-67
2021/09/23 00:40:44;;;;;;;11.47;10.27;;;8.60;99.90;;;;;;5130594;27;20551;-67
2021/09/23 00:43:11;;;;;;;12.77;10.83;;;8.60;99.90;;;;;;5129501;27;20447;-67
2021/09/23 00:45:38;;;;;;;13.80;11.70;;;8.50;99.90;;;;;;5130471;27;20959;-67
2021/09/23 00:48:07;;;;;;;12.37;10.30;;;8.60;99.90;;;;;;5130523;27;20486;-67
2021/09/23 00:50:34;;;;;;;13.90;10.57;;;8.50;99.90;;;;;;5130867;27;20450;-67
2021/09/23 00:53:01;;;;;;;13.50;10.90;;;8.50;99.90;;;;;;5129463;27;20446;-67
2021/09/23 00:55:29;;;;;;;12.87;11.23;;;8.40;99.90;;;;;;5130895;27;20440;-67
2021/09/23 00:57:55;;;;;;;13.13;11.20;;;8.40;99.90;;;;;;5130468;27;20527;-67
2021/09/23 01:00:23;;;;;;;11.97;10.80;;;8.40;99.90;;;;;;5130524;27;21011;-67
2021/09/23 01:02:50;;;;;;;14.83;11.80;;;8.40;99.90;;;;;;5129419;27;20444;-67
2021/09/23 01:05:19;;;;;;;13.27;11.50;;;8.30;99.90;;;;;;5130593;27;20539;-67
2021/09/23 01:07:48;;;;;;;14.20;12.70;;;8.40;99.90;;;;;;5130613;27;20444;-67
2021/09/23 01:10:16;;;;;;;18.30;11.90;;;8.30;99.90;;;;;;5130549;27;20446;-67
2021/09/23 01:12:44;;;;;;;17.67;12.20;;;8.30;99.90;;;;;;5129268;27;21028;-67
2021/09/23 01:15:13;;;;;;;15.27;11.30;;;8.30;99.90;;;;;;5130605;27;20449;-67
2021/09/23 01:17:40;;;;;;;13.90;11.13;;;8.30;99.90;;;;;;5130354;27;20547;-67
2021/09/23 01:20:08;;;;;;;14.20;11.57;;;8.30;99.90;;;;;;5130175;27;21103;-67
2021/09/23 01:22:36;;;;;;;15.03;11.40;;;8.30;99.90;;;;;;5129373;27;20823;-67
2021/09/23 01:25:07;;;;;;;17.13;12.20;;;8.30;99.90;;;;;;5130501;27;20479;-67
2021/09/23 01:27:34;;;;;;;16.10;11.10;;;8.40;99.90;;;;;;5134158;27;20452;-67
2021/09/23 01:30:02;;;;;;;14.90;12.43;;;8.40;99.90;;;;;;5134317;27;20502;-66
2021/09/23 01:32:28;;;;;;;14.07;12.10;;;8.40;99.90;;;;;;5133202;27;20448;-67
2021/09/23 01:34:55;;;;;;;13.83;11.80;;;8.40;99.90;;;;;;5133970;27;20818;-66
2021/09/23 01:37:22;;;;;;;13.93;12.20;;;8.40;99.90;;;;;;5133683;27;20468;-67
2021/09/23 01:39:51;;;;;;;15.23;11.93;;;8.40;99.90;;;;;;5133632;27;20439;-67
2021/09/23 01:42:17;;;;;;;14.93;11.80;;;8.30;99.90;;;;;;5133489;27;20883;-66
2021/09/23 01:44:45;;;;;;;14.17;11.60;;;8.20;99.90;;;;;;5133707;27;20901;-67
2021/09/23 01:47:12;;;;;;;13.10;11.67;;;8.20;99.90;;;;;;5133733;27;20548;-67
2021/09/23 01:49:39;;;;;;;13.97;10.67;;;8.20;99.90;;;;;;5133953;27;20518;-67
2021/09/23 01:52:06;;;;;;;14.40;12.00;;;8.10;99.90;;;;;;5132756;27;20510;-66
2021/09/23 01:54:33;;;;;;;15.73;12.33;;;8.10;99.90;;;;;;5134057;27;20446;-68
2021/09/23 01:57:01;;;;;;;15.03;11.60;;;8.10;99.90;;;;;;5133527;27;21194;-67
2021/09/23 01:59:27;;;;;;;14.20;11.83;;;8.20;99.90;;;;;;5133609;27;20512;-67
2021/09/23 02:01:54;;;;;;;16.50;12.70;;;8.10;99.90;;;;;;5132622;27;20441;-68
2021/09/23 02:04:21;;;;;;;14.50;11.10;;;8.00;99.90;;;;;;5133036;27;20445;-67
2021/09/23 02:06:48;;;;;;;15.27;12.40;;;8.00;99.90;;;;;;5133067;27;21027;-67
2021/09/23 02:09:15;;;;;;;14.30;12.30;;;8.00;99.90;;;;;;5133477;27;20480;-67
2021/09/23 02:11:42;;;;;;;17.13;12.50;;;8.00;99.90;;;;;;5132405;27;20445;-68
2021/09/23 02:14:10;;;;;;;14.90;12.00;;;8.00;99.90;;;;;;5132816;27;20798;-67
2021/09/23 02:16:37;;;;;;;14.17;12.03;;;8.00;99.90;;;;;;5132920;27;20559;-67
2021/09/23 02:19:04;;;;;;;16.97;12.07;;;7.90;99.90;;;;;;5132961;27;20444;-67
2021/09/23 02:21:31;;;;;;;15.40;12.07;;;7.80;99.90;;;;;;5132392;27;20437;-67
2021/09/23 02:23:58;;;;;;;14.70;11.03;;;7.80;99.90;;;;;;5132668;27;20826;-67
2021/09/23 02:26:25;;;;;;;15.90;12.23;;;7.80;99.90;;;;;;5132999;27;20464;-66
2021/09/23 02:28:52;;;;;;;14.57;11.87;;;7.70;99.90;;;;;;5132807;27;20476;-67
2021/09/23 02:31:20;;;;;;;13.93;11.87;;;7.70;99.90;;;;;;5132964;27;20490;-67
2021/09/23 02:33:47;;;;;;;15.20;12.53;;;7.70;99.90;;;;;;5132381;27;20444;-67
2021/09/23 02:36:14;;;;;;;15.90;13.47;;;7.70;99.90;;;;;;5133423;27;20851;-67
2021/09/23 02:38:41;;;;;;;18.37;13.57;;;7.70;99.90;;;;;;5132991;27;20447;-67
2021/09/23 02:41:08;;;;;;;18.47;15.07;;;7.60;99.90;;;;;;5132871;27;20463;-68
2021/09/23 02:43:35;;;;;;;15.60;13.13;;;7.70;99.90;;;;;;5131346;27;20445;-67
2021/09/23 02:46:02;;;;;;;17.83;14.33;;;7.70;99.90;;;;;;5132363;27;20852;-67
2021/09/23 02:48:30;;;;;;;15.63;13.07;;;7.70;99.90;;;;;;5132278;27;20508;-67
2021/09/23 02:50:57;;;;;;;15.87;13.37;;;7.70;99.90;;;;;;5132477;27;20531;-67
2021/09/23 02:53:24;;;;;;;15.23;13.20;;;7.60;99.90;;;;;;5131339;27;20466;-67
2021/09/23 02:55:52;;;;;;;15.77;12.53;;;7.70;99.90;;;;;;5132503;27;20666;-67
2021/09/23 02:58:19;;;;;;;16.37;12.60;;;7.80;99.90;;;;;;5132376;27;20455;-67
2021/09/23 03:00:46;;;;;;;17.10;11.80;;;7.70;99.90;;;;;;5132119;27;20450;-67
2021/09/23 03:03:14;;;;;;;19.17;15.00;;;7.60;99.90;;;;;;5130839;27;20527;-67
2021/09/23 03:05:43;;;;;;;17.63;13.40;;;7.60;99.90;;;;;;5132149;27;20468;-67
2021/09/23 03:08:10;;;;;;;17.10;13.40;;;7.60;99.90;;;;;;5132295;27;20522;-67
2021/09/23 03:10:37;;;;;;;17.50;13.87;;;7.60;99.90;;;;;;5131798;27;20472;-67
2021/09/23 03:13:04;;;;;;;15.80;12.30;;;7.50;99.90;;;;;;5130943;27;21310;-68
2021/09/23 03:15:31;;;;;;;13.73;12.33;;;7.50;99.90;;;;;;5131541;27;20531;-67
2021/09/23 03:17:58;;;;;;;14.90;11.83;;;7.40;99.90;;;;;;5132058;27;20536;-67
2021/09/23 03:20:25;;;;;;;15.63;13.57;;;7.40;99.90;;;;;;5131857;27;20813;-67
2021/09/23 03:22:55;;;;;;;16.10;12.10;;;7.40;99.90;;;;;;5131039;27;20667;-67
2021/09/23 03:25:22;;;;;;;18.00;12.53;;;7.30;99.90;;;;;;5131453;27;21036;-67
2021/09/23 03:27:49;;;;;;;16.47;11.70;;;7.40;99.90;;;;;;5131693;27;20867;-67
2021/09/23 03:30:16;;;;;;;16.63;12.53;;;7.40;99.90;;;;;;5132074;27;20582;-67
2021/09/23 03:32:43;;;;;;;17.77;13.83;;;7.50;99.90;;;;;;5130589;27;20531;-67
2021/09/23 03:35:11;;;;;;;15.40;11.73;;;7.40;99.90;;;;;;5131997;27;21008;-68
2021/09/23 03:37:38;;;;;;;15.83;11.50;;;7.30;99.90;;;;;;5131584;27;20472;-68
2021/09/23 03:40:08;;;;;;;15.03;11.10;;;7.40;99.90;;;;;;5131670;27;20452;-68
2021/09/23 03:42:35;;;;;;;13.20;10.63;;;7.40;99.90;;;;;;5131654;27;20444;-67
2021/09/23 03:45:02;;;;;;;13.67;10.20;;;7.40;99.90;;;;;;5132093;27;20440;-68
2021/09/23 03:47:29;;;;;;;13.60;9.77;;;7.30;99.90;;;;;;5132749;27;20840;-68
2021/09/23 03:49:55;;;;;;;10.90;9.80;;;7.30;99.90;;;;;;5130412;27;20490;-68
2021/09/23 03:52:23;;;;;;;12.17;10.33;;;7.30;99.90;;;;;;5130327;27;20559;-68
2021/09/23 03:54:49;;;;;;;13.63;11.20;;;7.30;99.90;;;;;;5131025;27;20536;-67
2021/09/23 03:57:19;;;;;;;15.30;11.23;;;7.20;99.90;;;;;;5131377;27;20479;-68
2021/09/23 03:59:46;;;;;;;13.13;10.87;;;7.20;99.90;;;;;;5131255;27;20540;-68
2021/09/23 04:02:13;;;;;;;13.80;9.23;;;7.20;99.90;;;;;;5130414;27;20534;-68
2021/09/23 04:04:40;;;;;;;13.50;10.70;;;7.10;99.90;;;;;;5130754;27;20448;-68
2021/09/23 04:07:07;;;;;;;13.87;10.50;;;7.30;99.90;;;;;;5131042;27;20921;-68
2021/09/23 04:09:34;;;;;;;12.67;10.23;;;7.20;99.90;;;;;;5130893;27;20480;-68
2021/09/23 04:12:01;;;;;;;11.30;9.70;;;7.20;99.90;;;;;;5130126;27;20450;-68
2021/09/23 04:14:29;;;;;;;12.13;10.50;;;7.10;99.90;;;;;;5130859;27;20455;-68
2021/09/23 04:16:56;;;;;;;11.40;9.60;;;7.10;99.90;;;;;;5131053;27;20474;-68
2021/09/23 04:19:23;;;;;;;12.20;9.73;;;7.10;99.90;;;;;;5131290;27;20436;-68
2021/09/23 04:21:51;;;;;;;12.73;11.40;;;7.10;99.90;;;;;;5130286;27;20445;-68
2021/09/23 04:24:18;;;;;;;12.37;10.33;;;7.20;99.90;;;;;;5130709;27;20446;-68
2021/09/23 04:26:46;;;;;;;12.90;10.50;;;7.20;99.90;;;;;;5131047;27;21002;-68
2021/09/23 04:29:13;;;;;;;12.20;9.47;;;7.20;99.90;;;;;;5131225;27;20478;-68
2021/09/23 04:31:41;;;;;;;18.33;10.40;;;7.20;99.90;;;;;;5130499;27;20459;-67
2021/09/23 04:34:08;;;;;;;14.53;11.20;;;7.10;99.90;;;;;;5130629;27;20491;-68
2021/09/23 04:36:35;;;;;;;12.10;9.33;;;7.10;99.90;;;;;;5130959;27;20491;-66
2021/09/23 04:39:02;;;;;;;14.27;10.27;;;7.10;99.90;;;;;;5130799;27;20440;-66
2021/09/23 04:41:29;;;;;;;12.07;10.07;;;7.00;99.90;;;;;;5129984;27;20552;-67
2021/09/23 04:43:55;;;;;;;12.47;10.13;;;7.00;99.90;;;;;;5130212;27;20533;-67
2021/09/23 04:46:24;;;;;;;12.97;10.13;;;7.10;99.90;;;;;;5130592;27;20575;-67
2021/09/23 04:48:53;;;;;;;14.67;11.00;;;7.00;99.90;;;;;;5111205;27;20821;-69
2021/09/23 04:51:20;;;;;;;16.63;10.60;;;7.00;99.90;;;;;;5109701;28;20931;-69
2021/09/23 04:53:47;;;;;;;13.37;11.60;;;6.90;99.90;;;;;;5109608;28;20620;-66
2021/09/23 04:56:14;;;;;;;14.20;10.03;;;6.90;99.90;;;;;;5109816;28;20465;-67
2021/09/23 04:58:41;;;;;;;13.87;11.30;;;7.00;99.90;;;;;;5110195;28;20939;-66
2021/09/23 05:01:08;;;;;;;14.07;10.90;;;7.00;99.90;;;;;;5112234;28;20535;-65
2021/09/23 05:03:35;;;;;;;15.07;10.93;;;7.00;99.90;;;;;;5112232;28;20557;-64
2021/09/23 05:06:03;;;;;;;12.90;10.47;;;7.00;99.90;;;;;;5116615;27;20478;-66
2021/09/23 05:08:30;;;;;;;12.67;10.27;;;6.90;99.90;;;;;;5129159;27;20969;-67
2021/09/23 05:10:57;;;;;;;14.67;11.27;;;7.00;99.90;;;;;;5126282;27;20563;-66
2021/09/23 05:13:25;;;;;;;13.80;11.97;;;7.00;99.90;;;;;;5133073;27;20531;-68
2021/09/23 05:15:51;;;;;;;17.70;12.40;;;7.10;99.90;;;;;;5134243;27;20499;-67
2021/09/23 05:18:18;;;;;;;17.70;12.03;;;7.10;99.90;;;;;;5133238;27;20454;-66
2021/09/23 05:20:46;;;;;;;17.30;12.20;;;7.10;99.90;;;;;;5134186;27;20436;-66
2021/09/23 05:23:14;;;;;;;20.70;14.43;;;7.20;99.90;;;;;;5132832;27;20458;-66
2021/09/23 05:25:41;;;;;;;15.93;12.30;;;7.30;99.90;;;;;;5133938;27;21159;-66
2021/09/23 05:28:07;;;;;;;21.57;15.50;;;7.40;99.90;;;;;;5133482;27;20564;-67
2021/09/23 05:30:34;;;;;;;20.30;15.00;;;7.40;99.90;;;;;;5133647;27;20563;-66
2021/09/23 05:33:01;;;;;;;18.20;15.07;;;7.50;99.90;;;;;;5132111;27;20444;-66
2021/09/23 05:35:28;;;;;;;19.73;15.40;;;7.60;99.90;;;;;;5133485;27;20448;-66
2021/09/23 05:37:55;;;;;;;23.37;17.43;;;7.60;99.90;;;;;;5133435;27;20937;-67
2021/09/23 05:40:23;;;;;;;19.23;15.03;;;7.70;99.90;;;;;;5133459;27;20848;-66
2021/09/23 05:42:50;;;;;;;18.70;14.57;;;7.80;99.90;;;;;;5132070;27;20448;-67
2021/09/23 05:45:18;;;;;;;21.80;15.60;;;7.80;99.90;;;;;;5133325;27;20447;-66
2021/09/23 05:47:46;;;;;;;18.70;15.40;;;7.80;99.90;;;;;;5133168;27;20531;-66
2021/09/23 05:50:14;;;;;;;18.30;14.57;;;7.70;99.90;;;;;;5133068;27;20577;-66
2021/09/23 05:52:41;;;;;;;12.23;10.77;;;7.70;99.90;;;;;;5132088;27;20440;-66
2021/09/23 05:55:09;;;;;;;14.10;12.37;;;7.60;99.90;;;;;;5133015;27;20452;-66
2021/09/23 05:57:38;;;;;;;15.70;12.90;;;7.60;99.90;;;;;;5132948;27;20981;-66
2021/09/23 06:00:07;;;;;;;14.57;11.93;;;7.60;99.90;;;;;;5132766;27;20446;-66
2021/09/23 06:02:34;;;;;;;16.70;11.80;;;7.60;99.90;;;;;;5132228;27;20448;-66
2021/09/23 06:05:01;;;;;;;15.80;12.37;;;7.70;99.90;;;;;;5132715;27;20819;-66
2021/09/23 06:07:28;;;;;;;23.40;16.77;;;7.60;99.90;;;;;;5132972;27;20555;-66
2021/09/23 06:09:55;;;;;;;17.03;10.83;;;7.60;99.90;;;;;;5132848;27;20559;-67
2021/09/23 06:12:22;;;;;;;14.33;11.37;;;7.70;99.90;;;;;;5131014;27;20450;-66
2021/09/23 06:14:50;;;;;;;14.03;12.37;;;7.80;99.90;;;;;;5132086;27;20535;-66
2021/09/23 06:17:18;;;;;;;15.33;11.40;;;7.90;99.90;;;;;;5132708;27;20471;-66
2021/09/23 06:19:45;;;;;;;12.87;10.67;;;8.00;99.90;;;;;;5132783;27;20436;-66
2021/09/23 06:22:12;;;;;;;13.03;11.43;;;8.10;99.90;;;;;;5131996;27;20491;-67
2021/09/23 06:24:39;;;;;;;15.90;11.10;;;8.20;99.90;;;;;;5132713;27;20484;-67
2021/09/23 06:27:07;;;;;;;13.03;11.53;;;8.20;99.90;;;;;;5132451;27;21002;-67
2021/09/23 06:29:34;;;;;;;14.93;11.77;;;8.30;99.90;;;;;;5132560;27;20448;-66
2021/09/23 06:32:04;;;;;;;16.67;12.40;;;8.50;99.90;;;;;;5126802;27;20537;-67
2021/09/23 06:34:30;;;;;;;14.17;11.10;;;8.50;99.90;;;;;;5118575;27;20445;-67
2021/09/23 06:36:58;;;;;;;15.57;10.40;;;8.60;99.90;;;;;;5125659;27;20464;-67
2021/09/23 06:39:25;;;;;;;15.60;11.87;;;8.60;99.90;;;;;;5132162;27;20520;-67
2021/09/23 06:41:52;;;;;;;13.73;12.30;;;8.70;99.90;;;;;;5131126;27;20453;-67
2021/09/23 06:44:18;;;;;;;16.93;11.73;;;8.80;99.90;;;;;;5131985;27;20479;-67
2021/09/23 06:46:46;;;;;;;17.00;11.90;;;8.90;99.90;;;;;;5126396;27;20484;-67
2021/09/23 06:49:14;;;;;;;14.10;10.80;;;9.00;99.90;;;;;;5116233;27;20488;-67
2021/09/23 06:51:41;;;;;;;12.60;11.10;;;9.10;99.90;;;;;;5116478;27;20551;-68
2021/09/23 06:54:08;;;;;;;14.10;11.80;;;9.20;99.90;;;;;;5113030;27;20540;-68
2021/09/23 06:56:37;;;;;;;13.17;11.33;;;9.30;99.90;;;;;;5114730;27;20472;-68
2021/09/23 06:59:04;;;;;;;17.90;11.60;;;9.40;99.90;;;;;;5113388;27;20461;-66
2021/09/23 07:01:32;;;;;;;14.33;11.20;;;9.50;99.90;;;;;;5114182;27;20452;-66
2021/09/23 07:03:59;;;;;;;14.37;11.50;;;9.60;99.90;;;;;;5114695;27;21000;-67
2021/09/23 07:06:28;;;;;;;13.30;11.27;;;9.70;99.90;;;;;;5114673;27;20530;-67
2021/09/23 07:08:55;;;;;;;16.43;11.70;;;9.80;99.90;;;;;;5115323;27;20509;-68
2021/09/23 07:11:22;;;;;;;12.97;11.60;;;9.90;99.90;;;;;;5114339;27;20563;-67
2021/09/23 07:13:49;;;;;;;14.70;11.83;;;10.00;99.90;;;;;;5112634;27;20449;-68
2021/09/23 07:16:16;;;;;;;15.90;12.57;;;10.20;99.90;;;;;;5115938;27;20561;-68
2021/09/23 07:18:43;;;;;;;19.03;13.80;;;10.30;99.90;;;;;;5119349;27;21009;-68
2021/09/23 07:21:09;;;;;;;14.23;12.70;;;10.40;99.90;;;;;;5129479;27;20429;-66
2021/09/23 07:23:38;;;;;;;15.50;13.90;;;10.50;99.90;;;;;;5128168;27;20455;-66
2021/09/23 07:26:05;;;;;;;18.67;14.10;;;10.60;99.90;;;;;;5129913;27;20474;-66
2021/09/23 07:28:32;;;;;;;18.53;13.93;;;10.70;99.90;;;;;;5129345;27;20468;-67
2021/09/23 07:30:59;;;;;;;16.77;12.80;;;10.80;99.90;;;;;;5129327;27;21013;-66
2021/09/23 07:33:26;;;;;;;15.83;12.43;;;10.90;99.90;;;;;;5128378;27;20479;-66
2021/09/23 07:35:54;;;;;;;14.20;12.20;;;11.00;99.90;;;;;;5129096;27;20535;-66
2021/09/23 07:38:21;;;;;;;15.03;11.50;;;11.10;99.90;;;;;;5129528;27;20444;-67
2021/09/23 07:40:50;;;;;;;15.20;11.53;;;11.20;99.90;;;;;;5129350;27;20452;-67
2021/09/23 07:43:17;;;;;;;14.70;13.00;;;11.40;99.90;;;;;;5128395;27;20528;-65
2021/09/23 07:45:44;;;;;;;14.03;12.43;;;11.50;99.90;;;;;;5130073;27;21048;-66
2021/09/23 07:48:10;;;;;;;14.10;10.80;;;11.60;99.90;;;;;;5131254;27;20448;-67
2021/09/23 07:50:38;;;;;;;14.30;10.77;;;11.70;99.90;;;;;;5130513;27;20511;-67
2021/09/23 07:53:05;;;;;;;12.57;11.27;;;11.90;99.90;;;;;;5127653;27;20468;-67
2021/09/23 07:55:32;;;;;;;13.63;11.30;;;12.00;99.90;;;;;;5128908;27;20472;-67
2021/09/23 07:58:00;;;;;;;12.73;10.77;;;12.00;99.90;;;;;;5128802;27;20535;-67
2021/09/23 08:00:28;;;;;;;18.40;13.20;;;12.10;99.90;;;;;;5128316;27;20455;-67
2021/09/23 08:02:55;;;;;;;14.43;13.02;;;12.20;99.90;;;;;;5126192;27;20452;-67
2021/09/23 08:05:22;;;;;;;18.53;12.50;;;12.30;99.90;;;;;;5128899;27;20195;-66
2021/09/23 08:07:49;;;;;;;18.70;12.00;;;12.40;99.90;;;;;;5128685;27;20991;-66
2021/09/23 08:10:16;;;;;;;15.20;12.70;;;12.50;99.90;;;;;;5128571;27;20858;-66
2021/09/23 08:12:43;;;;;;;13.50;11.27;;;12.60;99.90;;;;;;5127771;27;20448;-67
2021/09/23 08:15:12;;;;;;;13.07;11.40;;;12.70;99.90;;;;;;5128934;27;20832;-66
2021/09/23 08:17:39;;;;;;;14.97;12.20;;;12.90;99.90;;;;;;5128010;27;20514;-66
2021/09/23 08:20:08;;;;;;;12.77;10.73;;;13.00;99.90;;;;;;5129120;27;20540;-66
2021/09/23 08:22:35;;;;;;;15.90;11.70;;;13.10;99.90;;;;;;5128456;27;20442;-66
2021/09/23 08:25:02;;;;;;;12.40;11.10;;;13.20;99.90;;;;;;5128888;27;20451;-67
2021/09/23 08:27:29;;;;;;;13.33;10.03;;;13.40;99.90;;;;;;5129255;27;20555;-67
2021/09/23 08:29:55;;;;;;;13.70;11.33;;;13.50;99.90;;;;;;5129531;27;20455;-66
2021/09/23 08:32:24;;;;;;;12.50;11.00;;;13.60;99.90;;;;;;5126993;27;21298;-66
2021/09/23 08:34:52;;;;;;;12.90;10.70;;;13.80;99.90;;;;;;5117315;27;20473;-68
2021/09/23 08:37:19;;;;;;;10.77;9.30;;;13.90;99.90;;;;;;5120975;27;20474;-67
2021/09/23 08:39:46;;;;;;;14.37;10.83;;;14.10;99.90;;;;;;5123301;27;20452;-67
2021/09/23 08:42:12;;;;;;;10.30;9.07;;;14.20;99.90;;;;;;5118628;27;20537;-67
2021/09/23 08:44:40;;;;;;;14.80;10.00;;;14.40;99.90;;;;;;5122930;27;20543;-66
2021/09/23 08:47:07;;;;;;;10.03;8.73;;;14.50;99.90;;;;;;5127857;27;20476;-66
2021/09/23 08:49:36;;;;;;;12.03;9.43;;;14.70;99.90;;;;;;5134165;27;20524;-67
2021/09/23 08:52:03;;;;;;;11.40;9.50;;;14.90;99.90;;;;;;5133312;27;21021;-66
2021/09/23 08:54:30;;;;;;;11.50;9.97;;;15.00;99.90;;;;;;5134970;27;20961;-67
2021/09/23 08:57:01;;;;;;;10.23;8.33;;;15.30;99.90;;;;;;5135832;27;20464;-67
2021/09/23 08:59:29;;;;;;;13.03;9.40;;;15.50;99.90;;;;;;5131888;27;21284;-68
2021/09/23 09:01:56;;;;;;;10.97;9.67;;;15.80;99.90;;;;;;5121105;27;20968;-67
2021/09/23 09:04:30;;;;;;;11.20;8.03;;;16.00;99.90;;;;;;5121531;27;20452;-68
2021/09/23 09:07:02;;;;;;;10.47;7.10;;;16.40;99.90;;;;;;5122946;27;20820;-68
2021/09/23 09:09:30;;;;;;;8.90;6.63;;;16.70;99.90;;;;;;5116268;27;20938;-68
2021/09/23 09:11:57;;;;;;;8.40;7.50;;;17.10;99.90;;;;;;5114857;27;20481;-67
2021/09/23 09:14:27;;;;;;;7.00;6.10;;;17.30;99.90;;;;;;5119306;27;20444;-68
2021/09/23 09:16:56;;;;;;;8.40;7.10;;;17.60;99.90;;;;;;5117997;27;20476;-68
2021/09/23 09:19:23;;;;;;;9.70;6.43;;;17.90;99.90;;;;;;5128401;27;20487;-68
2021/09/23 09:21:50;;;;;;;7.50;6.07;;;18.30;99.90;;;;;;5133479;27;20476;-67
2021/09/23 09:24:19;;;;;;;14.43;6.07;;;18.70;99.90;;;;;;5133803;27;21002;-66
2021/09/23 09:26:46;;;;;;;6.50;5.30;;;19.10;99.90;;;;;;5133909;27;20556;-66
2021/09/23 09:29:15;;;;;;;6.83;4.90;;;19.30;99.90;;;;;;5134271;27;20479;-66
2021/09/23 09:31:47;;;;;;;7.70;5.00;;;19.40;99.90;;;;;;5133199;27;20509;-66
2021/09/23 09:34:15;;;;;;;5.60;4.47;;;19.70;99.90;;;;;;5133753;27;20861;-66
2021/09/23 09:36:48;;;;;;;9.63;4.80;;;20.00;99.90;;;;;;5119512;27;20468;-66
2021/09/23 09:39:19;;;;;;;7.50;4.80;;;20.40;99.90;;;;;;5123223;27;20455;-66
2021/09/23 09:41:48;;;;;;;6.57;4.83;;;20.60;99.90;;;;;;5132282;27;20535;-66
2021/09/23 09:44:18;;;;;;;7.10;4.17;;;20.50;99.90;;;;;;5117989;27;20533;-66
2021/09/23 09:46:49;;;;;;;7.20;4.10;;;20.10;99.90;;;;;;5118529;27;20540;-67
2021/09/23 09:49:17;;;;;;;4.97;3.83;;;20.20;99.90;;;;;;5122183;27;21109;-67
2021/09/23 09:51:46;;;;;;;7.93;4.10;;;20.60;99.90;;;;;;5132776;27;20476;-67
2021/09/23 09:54:15;;;;;;;5.00;4.00;;;21.00;99.90;;;;;;5132477;27;20455;-65
2021/09/23 09:56:46;;;;;;;5.50;4.07;;;21.20;99.90;;;;;;5136290;27;20532;-68
2021/09/23 09:59:15;;;;;;;5.73;4.60;;;21.00;99.90;;;;;;5133240;27;21014;-68
2021/09/23 10:01:44;;;;;;;9.50;5.20;;;20.90;99.90;;;;;;5130297;27;20436;-67
2021/09/23 10:04:12;;;;;;;6.97;5.20;;;21.00;99.90;;;;;;5132520;27;20433;-67
2021/09/23 10:06:40;;;;;;;7.40;4.97;;;21.30;99.90;;;;;;5147573;27;20491;-67
2021/09/23 10:09:08;;;;;;;5.47;4.70;;;21.70;99.90;;;;;;5136333;27;20515;-68
2021/09/23 10:11:36;;;;;;;7.70;5.00;;;21.90;99.90;;;;;;5135053;27;20567;-66
2021/09/23 10:14:05;;;;;;;5.50;4.33;;;22.20;99.90;;;;;;5135424;27;20450;-67
2021/09/23 10:16:32;;;;;;;7.23;4.60;;;22.50;99.90;;;;;;5132707;27;20465;-67
2021/09/23 10:18:59;;;;;;;10.93;4.90;;;22.90;99.20;;;;;;5132107;27;20523;-67
2021/09/23 10:21:27;;;;;;;10.10;5.23;;;22.80;99.20;;;;;;5131150;27;20447;-66
2021/09/23 10:23:55;;;;;;;6.80;4.77;;;22.80;97.80;;;;;;5132349;27;20442;-67
2021/09/23 10:26:27;;;;;;;6.73;4.50;;;22.60;98.40;;;;;;5132285;27;20986;-67
2021/09/23 10:28:56;;;;;;;6.13;4.87;;;22.60;99.00;;;;;;5129530;27;20452;-67
2021/09/23 10:31:31;;;;;;;7.27;4.20;;;23.00;98.30;;;;;;5129287;27;20484;-66
2021/09/23 10:34:00;;;;;;;5.10;3.70;;;23.70;98.70;;;;;;5132520;27;20954;-66
2021/09/23 10:36:28;;;;;;;5.33;3.93;;;24.50;97.20;;;;;;5132359;27;20469;-67
2021/09/23 10:38:56;;;;;;;5.17;3.93;;;25.20;94.40;;;;;;5132899;27;21037;-67
2021/09/23 10:41:25;;;;;;;5.70;3.60;;;25.50;93.20;;;;;;5131670;27;20540;-66
2021/09/23 10:43:53;;;;;;;5.00;4.10;;;25.90;93.50;;;;;;5131373;27;20972;-66
2021/09/23 10:46:21;;;;;;;7.80;4.70;;;25.70;92.30;;;;;;5127231;27;20468;-66
2021/09/23 10:48:53;;;;;;;5.17;4.13;;;25.80;91.60;;;;;;5126036;27;20474;-66
2021/09/23 10:51:21;;;;;;;7.80;3.90;;;25.80;91.30;;;;;;5127649;27;20504;-66
2021/09/23 10:53:52;;;;;;;5.70;3.50;;;25.90;91.50;;;;;;5127205;27;20448;-67
2021/09/23 10:56:21;;;;;;;5.10;3.47;;;26.10;90.00;;;;;;5125959;27;20513;-66
2021/09/23 10:58:49;;;;;;;5.53;3.60;;;26.20;92.10;;;;;;5122139;27;20444;-67
2021/09/23 11:01:22;;;;;;;6.67;3.60;;;26.90;90.00;;;;;;5128689;27;20444;-66
2021/09/23 11:03:52;;;;;;;4.80;3.30;;;27.70;87.70;;;;;;5126500;27;20982;-66
2021/09/23 11:06:19;;;;;;;5.07;4.07;;;28.30;85.10;;;;;;5131972;27;20466;-67
2021/09/23 11:08:48;;;;;;;5.87;3.77;;;28.90;83.00;;;;;;5127274;27;20444;-66
2021/09/23 11:11:16;;;;;;;4.77;3.63;;;28.70;82.10;;;;;;5137779;27;20476;-66
2021/09/23 11:13:43;;;;;;;6.73;3.73;;;29.40;81.80;;;;;;5130098;27;21170;-67
2021/09/23 11:16:12;;;;;;;6.07;3.37;;;29.90;79.30;;;;;;5131263;27;20636;-67
2021/09/23 11:18:41;;;;;;;7.03;3.80;;;30.40;76.90;;;;;;5131603;27;20451;-64
2021/09/23 11:21:11;;;;;;;4.10;3.17;;;30.80;73.80;;;;;;5131667;27;20444;-66
2021/09/23 11:23:38;;;;;;;4.90;3.27;;;31.50;74.90;;;;;;5130074;27;21009;-66
2021/09/23 11:26:06;;;;;;;8.20;4.23;;;31.60;68.80;;;;;;5132774;27;20467;-65
2021/09/23 11:28:33;;;;;;;5.20;3.40;;;30.30;71.20;;;;;;5133398;27;20456;-65
2021/09/23 11:31:01;;;;;;;5.67;3.53;;;31.00;73.20;;;;;;5134199;27;20444;-65
2021/09/23 11:33:29;;;;;;;5.00;3.57;;;31.70;71.70;;;;;;5130509;27;20444;-66
2021/09/23 11:35:56;;;;;;;3.87;3.00;;;31.60;73.80;;;;;;5130956;27;20480;-66
2021/09/23 11:38:26;;;;;;;3.50;2.80;;;31.60;65.80;;;;;;5127845;27;20436;-65
2021/09/23 11:40:58;;;;;;;4.00;2.83;;;31.60;68.00;;;;;;5130966;27;20837;-65
2021/09/23 11:43:29;;;;;;;7.80;4.00;;;32.00;68.20;;;;;;5129943;27;20452;-66
2021/09/23 11:45:59;;;;;;;4.40;2.77;;;32.90;65.90;;;;;;5128747;27;20511;-67
2021/09/23 11:48:34;;;;;;;4.33;3.07;;;33.50;60.30;;;;;;5128003;27;20440;-66
2021/09/23 11:51:03;;;;;;;4.10;2.87;;;33.30;59.10;;;;;;5130240;27;20455;-65
2021/09/23 11:53:32;;;;;;;5.93;3.20;;;32.70;59.80;;;;;;5129572;27;20436;-65
2021/09/23 11:56:02;;;;;;;5.10;3.63;;;32.40;59.70;;;;;;5130633;27;20568;-64
2021/09/23 11:58:30;;;;;;;4.83;3.10;;;30.80;61.30;;;;;;5128197;27;20483;-65
2021/09/23 12:00:57;;;;;;;3.33;2.57;;;30.60;63.00;;;;;;5130138;27;20527;-66
2021/09/23 12:03:25;;;;;;;6.73;3.20;;;31.60;63.70;;;;;;5129534;27;20447;-66
2021/09/23 12:05:53;;;;;;;6.30;3.40;;;32.80;62.30;;;;;;5130611;27;20468;-65
2021/09/23 12:08:22;;;;;;;4.70;3.07;;;33.50;60.70;;;;;;5130427;27;20527;-65
2021/09/23 12:10:54;;;;;;;3.80;3.30;;;34.40;58.60;;;;;;5129857;27;20441;-65
2021/09/23 12:13:35;;;;;;;6.27;3.40;;;34.80;55.90;;;;;;5129086;27;20511;-65
2021/09/23 12:16:03;;;;;;;6.33;3.10;;;34.90;54.50;;;;;;5130875;27;20468;-65
2021/09/23 12:18:31;;;;;;;4.43;2.90;;;35.00;55.20;;;;;;5130415;27;20451;-65
2021/09/23 12:21:00;;;;;;;4.50;3.50;;;35.10;53.50;;;;;;5130551;27;20452;-64
2021/09/23 12:23:30;;;;;;;4.30;3.10;;;34.70;52.60;;;;;;5125409;27;20593;-64
2021/09/23 12:26:23;;;;;;;5.40;2.90;;;34.40;52.30;;;;;;5130349;27;20478;-64
2021/09/23 12:28:59;;;;;;;4.37;2.93;;;34.70;51.90;;;;;;5115337;27;20483;-64
2021/09/23 12:31:35;;;;;;;5.03;3.10;;;35.40;53.40;;;;;;5129693;27;20444;-64
2021/09/23 12:34:05;;;;;;;5.43;2.83;;;36.00;53.70;;;;;;5129920;27;20440;-65
2021/09/23 12:36:35;;;;;;;5.20;2.30;;;36.00;50.00;;;;;;5130370;27;20465;-65
2021/09/23 12:39:18;;;;;;;5.97;2.73;;;36.50;48.10;;;;;;5130139;27;20538;-66
2021/09/23 12:42:05;;;;;;;4.83;2.60;;;36.50;48.50;;;;;;5115368;27;20456;-65